sensor_id;sensor_type;location;lat;lon;timestamp;pressure;altitude;pressure_sealevel;temperature;humidity
44872;BME280;30602;51.060;17.226;2023-02-03T00:00:31;102353.66;;;-0.95;87.18
44872;BME280;30602;51.060;17.226;2023-02-03T00:03:45;102349.07;;;-1.02;87.72
44872;BME280;30602;51.060;17.226;2023-02-03T00:07:00;102336.55;;;-1.15;88.18
44872;BME280;30602;51.060;17.226;2023-02-03T00:10:11;102343.70;;;-1.11;87.96
44872;BME280;30602;51.060;17.226;2023-02-03T00:13:44;102343.42;;;-1.18;88.34
44872;BME280;30602;51.060;17.226;2023-02-03T00:16:51;102348.73;;;-1.14;88.28
44872;BME280;30602;51.060;17.226;2023-02-03T00:20:06;102344.15;;;-1.20;88.23
44872;BME280;30602;51.060;17.226;2023-02-03T00:23:16;102342.95;;;-1.26;88.52
44872;BME280;30602;51.060;17.226;2023-02-03T00:26:26;102333.67;;;-1.26;88.78
44872;BME280;30602;51.060;17.226;2023-02-03T00:29:37;102336.57;;;-1.27;88.95
44872;BME280;30602;51.060;17.226;2023-02-03T00:33:03;102336.52;;;-1.27;89.33
44872;BME280;30602;51.060;17.226;2023-02-03T00:36:12;102339.39;;;-1.25;89.17
44872;BME280;30602;51.060;17.226;2023-02-03T00:39:56;102345.49;;;-1.29;89.45
44872;BME280;30602;51.060;17.226;2023-02-03T00:43:16;102338.83;;;-1.28;89.79
44872;BME280;30602;51.060;17.226;2023-02-03T00:46:52;102336.02;;;-1.34;89.84
44872;BME280;30602;51.060;17.226;2023-02-03T00:50:40;102336.62;;;-1.31;89.86
44872;BME280;30602;51.060;17.226;2023-02-03T00:53:50;102336.50;;;-1.41;90.18
44872;BME280;30602;51.060;17.226;2023-02-03T00:57:02;102324.88;;;-1.32;90.63
44872;BME280;30602;51.060;17.226;2023-02-03T01:00:15;102319.73;;;-1.35;90.78
44872;BME280;30602;51.060;17.226;2023-02-03T01:03:43;102319.98;;;-1.42;90.98
44872;BME280;30602;51.060;17.226;2023-02-03T01:07:39;102318.35;;;-1.42;91.02
44872;BME280;30602;51.060;17.226;2023-02-03T01:10:49;102318.19;;;-1.47;91.08
44872;BME280;30602;51.060;17.226;2023-02-03T01:14:30;102298.78;;;-1.47;91.41
44872;BME280;30602;51.060;17.226;2023-02-03T01:17:47;102305.24;;;-1.46;91.35
44872;BME280;30602;51.060;17.226;2023-02-03T01:21:02;102304.91;;;-1.55;91.42
44872;BME280;30602;51.060;17.226;2023-02-03T01:24:12;102295.02;;;-1.52;92.27
44872;BME280;30602;51.060;17.226;2023-02-03T01:27:22;102294.61;;;-1.40;92.27
44872;BME280;30602;51.060;17.226;2023-02-03T01:30:32;102267.83;;;-1.63;92.23
44872;BME280;30602;51.060;17.226;2023-02-03T01:34:15;102282.09;;;-1.49;92.76
44872;BME280;30602;51.060;17.226;2023-02-03T01:37:46;102270.33;;;-1.38;92.75
44872;BME280;30602;51.060;17.226;2023-02-03T01:40:59;102268.77;;;-1.36;92.79
44872;BME280;30602;51.060;17.226;2023-02-03T01:50:56;102233.41;;;-1.48;93.57
44872;BME280;30602;51.060;17.226;2023-02-03T01:54:11;102237.16;;;-1.42;93.57
44872;BME280;30602;51.060;17.226;2023-02-03T01:57:34;102224.08;;;-1.39;93.90
44872;BME280;30602;51.060;17.226;2023-02-03T02:00:47;102215.23;;;-1.34;93.94
44872;BME280;30602;51.060;17.226;2023-02-03T02:03:58;102206.03;;;-1.31;94.02
44872;BME280;30602;51.060;17.226;2023-02-03T02:08:08;102182.96;;;-1.27;94.24
44872;BME280;30602;51.060;17.226;2023-02-03T02:11:17;102168.30;;;-1.31;94.13
44872;BME280;30602;51.060;17.226;2023-02-03T02:14:29;102159.48;;;-1.25;94.29
44872;BME280;30602;51.060;17.226;2023-02-03T02:17:48;102154.06;;;-1.21;94.45
44872;BME280;30602;51.060;17.226;2023-02-03T02:21:23;102148.68;;;-1.20;94.59
44872;BME280;30602;51.060;17.226;2023-02-03T02:41:51;102148.89;;;-1.21;94.08
44872;BME280;30602;51.060;17.226;2023-02-03T02:45:55;102158.14;;;-1.25;94.56
44872;BME280;30602;51.060;17.226;2023-02-03T02:52:31;102140.12;;;-1.23;94.29
44872;BME280;30602;51.060;17.226;2023-02-03T02:55:47;102126.72;;;-1.17;94.67
44872;BME280;30602;51.060;17.226;2023-02-03T02:58:59;102117.53;;;-1.16;94.89
44872;BME280;30602;51.060;17.226;2023-02-03T03:02:42;102095.48;;;-1.12;94.94
44872;BME280;30602;51.060;17.226;2023-02-03T03:05:55;102087.37;;;-1.13;95.03
44872;BME280;30602;51.060;17.226;2023-02-03T03:09:27;102088.16;;;-1.12;95.20
44872;BME280;30602;51.060;17.226;2023-02-03T03:12:48;102080.09;;;-1.10;95.33
44872;BME280;30602;51.060;17.226;2023-02-03T03:16:11;102063.90;;;-1.11;95.34
44872;BME280;30602;51.060;17.226;2023-02-03T03:19:23;102048.29;;;-1.13;95.37
44872;BME280;30602;51.060;17.226;2023-02-03T03:22:59;102049.59;;;-1.10;95.74
44872;BME280;30602;51.060;17.226;2023-02-03T03:26:13;102036.88;;;-1.15;95.83
44872;BME280;30602;51.060;17.226;2023-02-03T03:29:40;102035.59;;;-1.01;95.79
44872;BME280;30602;51.060;17.226;2023-02-03T03:33:47;102033.20;;;-1.01;95.42
44872;BME280;30602;51.060;17.226;2023-02-03T03:41:00;102026.09;;;-0.86;95.18
44872;BME280;30602;51.060;17.226;2023-02-03T03:44:15;102021.55;;;-0.82;94.52
44872;BME280;30602;51.060;17.226;2023-02-03T03:55:32;102030.70;;;-0.79;94.17
44872;BME280;30602;51.060;17.226;2023-02-03T03:59:15;102029.32;;;-0.72;94.00
44872;BME280;30602;51.060;17.226;2023-02-03T04:03:04;102023.66;;;-0.74;94.14
44872;BME280;30602;51.060;17.226;2023-02-03T04:06:16;102016.70;;;-0.72;93.82
44872;BME280;30602;51.060;17.226;2023-02-03T04:09:58;102013.00;;;-0.72;93.68
44872;BME280;30602;51.060;17.226;2023-02-03T04:13:41;102008.77;;;-0.68;93.53
44872;BME280;30602;51.060;17.226;2023-02-03T04:17:00;102003.97;;;-0.70;93.13
44872;BME280;30602;51.060;17.226;2023-02-03T04:20:09;102004.09;;;-0.69;93.15
44872;BME280;30602;51.060;17.226;2023-02-03T04:23:18;102011.62;;;-0.59;93.07
44872;BME280;30602;51.060;17.226;2023-02-03T04:26:23;102001.27;;;-0.61;93.05
44872;BME280;30602;51.060;17.226;2023-02-03T04:29:32;101992.41;;;-0.66;92.91
44872;BME280;30602;51.060;17.226;2023-02-03T04:33:10;101981.59;;;-0.64;93.26
44872;BME280;30602;51.060;17.226;2023-02-03T04:37:03;101966.63;;;-0.62;92.88
44872;BME280;30602;51.060;17.226;2023-02-03T04:40:13;101964.01;;;-0.57;92.16
44872;BME280;30602;51.060;17.226;2023-02-03T04:43:25;101953.69;;;-0.56;91.87
44872;BME280;30602;51.060;17.226;2023-02-03T04:46:34;101951.91;;;-0.54;91.56
44872;BME280;30602;51.060;17.226;2023-02-03T04:49:57;101938.05;;;-0.41;91.34
44872;BME280;30602;51.060;17.226;2023-02-03T04:53:06;101924.63;;;-0.32;91.01
44872;BME280;30602;51.060;17.226;2023-02-03T04:56:21;101920.77;;;-0.35;90.50
44872;BME280;30602;51.060;17.226;2023-02-03T04:59:30;101923.42;;;-0.28;90.01
44872;BME280;30602;51.060;17.226;2023-02-03T05:02:39;101913.82;;;-0.24;90.26
44872;BME280;30602;51.060;17.226;2023-02-03T05:06:13;101901.19;;;-0.25;89.92
44872;BME280;30602;51.060;17.226;2023-02-03T05:09:20;101896.49;;;-0.19;89.61
44872;BME280;30602;51.060;17.226;2023-02-03T05:13:23;101889.25;;;-0.23;89.47
44872;BME280;30602;51.060;17.226;2023-02-03T05:16:33;101886.05;;;-0.26;89.28
44872;BME280;30602;51.060;17.226;2023-02-03T05:20:21;101886.11;;;-0.24;89.73
44872;BME280;30602;51.060;17.226;2023-02-03T05:23:31;101887.46;;;-0.21;89.53
44872;BME280;30602;51.060;17.226;2023-02-03T05:27:09;101875.98;;;-0.28;89.88
44872;BME280;30602;51.060;17.226;2023-02-03T05:30:21;101859.99;;;-0.31;90.09
44872;BME280;30602;51.060;17.226;2023-02-03T05:33:33;101861.33;;;-0.29;90.10
44872;BME280;30602;51.060;17.226;2023-02-03T05:37:27;101862.06;;;-0.26;90.39
44872;BME280;30602;51.060;17.226;2023-02-03T05:40:43;101858.32;;;-0.17;90.48
44872;BME280;30602;51.060;17.226;2023-02-03T05:44:01;101853.16;;;-0.14;90.23
44872;BME280;30602;51.060;17.226;2023-02-03T05:47:45;101849.70;;;-0.15;90.67
44872;BME280;30602;51.060;17.226;2023-02-03T05:50:53;101848.70;;;-0.21;90.73
44872;BME280;30602;51.060;17.226;2023-02-03T05:54:01;101844.94;;;-0.21;90.84
44872;BME280;30602;51.060;17.226;2023-02-03T05:58:07;101843.14;;;-0.14;91.21
44872;BME280;30602;51.060;17.226;2023-02-03T06:02:26;101815.78;;;-0.18;92.42
44872;BME280;30602;51.060;17.226;2023-02-03T06:05:39;101816.20;;;-0.08;93.32
44872;BME280;30602;51.060;17.226;2023-02-03T06:08:53;101814.48;;;-0.15;94.19
44872;BME280;30602;51.060;17.226;2023-02-03T06:12:03;101812.55;;;-0.14;95.17
44872;BME280;30602;51.060;17.226;2023-02-03T06:15:11;101801.69;;;-0.15;95.77
44872;BME280;30602;51.060;17.226;2023-02-03T06:18:36;101801.62;;;-0.16;96.50
44872;BME280;30602;51.060;17.226;2023-02-03T06:21:46;101790.72;;;-0.17;97.33
44872;BME280;30602;51.060;17.226;2023-02-03T06:25:32;101778.67;;;-0.24;98.30
44872;BME280;30602;51.060;17.226;2023-02-03T06:29:15;101764.16;;;-0.27;99.57
44872;BME280;30602;51.060;17.226;2023-02-03T06:32:25;101767.89;;;-0.17;99.98
44872;BME280;30602;51.060;17.226;2023-02-03T06:35:54;101765.12;;;-0.16;99.99
44872;BME280;30602;51.060;17.226;2023-02-03T06:39:07;101761.19;;;-0.16;100.00
44872;BME280;30602;51.060;17.226;2023-02-03T06:42:17;101754.75;;;-0.14;100.00
44872;BME280;30602;51.060;17.226;2023-02-03T06:45:58;101743.95;;;-0.11;100.00
44872;BME280;30602;51.060;17.226;2023-02-03T06:49:41;101731.52;;;-0.13;100.00
44872;BME280;30602;51.060;17.226;2023-02-03T06:52:49;101720.70;;;-0.10;100.00
44872;BME280;30602;51.060;17.226;2023-02-03T06:57:06;101704.73;;;-0.03;100.00
44872;BME280;30602;51.060;17.226;2023-02-03T07:01:24;101680.48;;;0.08;100.00
44872;BME280;30602;51.060;17.226;2023-02-03T07:04:35;101669.74;;;0.16;100.00
44872;BME280;30602;51.060;17.226;2023-02-03T07:08:18;101664.78;;;0.08;100.00
44872;BME280;30602;51.060;17.226;2023-02-03T07:11:58;101640.97;;;0.14;100.00
44872;BME280;30602;51.060;17.226;2023-02-03T07:15:52;101643.27;;;0.20;100.00
44872;BME280;30602;51.060;17.226;2023-02-03T07:19:34;101637.23;;;0.25;100.00
44872;BME280;30602;51.060;17.226;2023-02-03T07:23:10;101624.76;;;0.16;100.00
44872;BME280;30602;51.060;17.226;2023-02-03T07:26:21;101614.30;;;0.16;100.00
44872;BME280;30602;51.060;17.226;2023-02-03T07:29:53;101600.76;;;0.08;100.00
44872;BME280;30602;51.060;17.226;2023-02-03T07:33:05;101585.22;;;0.10;100.00
44872;BME280;30602;51.060;17.226;2023-02-03T07:36:39;101575.13;;;0.09;100.00
44872;BME280;30602;51.060;17.226;2023-02-03T07:39:50;101576.24;;;0.07;100.00
44872;BME280;30602;51.060;17.226;2023-02-03T07:43:00;101568.58;;;0.12;100.00
44872;BME280;30602;51.060;17.226;2023-02-03T07:46:32;101555.92;;;0.08;100.00
44872;BME280;30602;51.060;17.226;2023-02-03T07:50:04;101535.48;;;0.06;100.00
44872;BME280;30602;51.060;17.226;2023-02-03T07:53:23;101537.23;;;0.14;100.00
44872;BME280;30602;51.060;17.226;2023-02-03T07:56:31;101519.67;;;0.10;100.00
44872;BME280;30602;51.060;17.226;2023-02-03T08:00:17;101513.29;;;0.06;100.00
44872;BME280;30602;51.060;17.226;2023-02-03T08:03:23;101504.47;;;0.06;100.00
44872;BME280;30602;51.060;17.226;2023-02-03T08:06:33;101490.79;;;0.03;100.00
44872;BME280;30602;51.060;17.226;2023-02-03T08:09:46;101485.40;;;0.11;100.00
44872;BME280;30602;51.060;17.226;2023-02-03T08:13:16;101477.11;;;0.19;100.00
44872;BME280;30602;51.060;17.226;2023-02-03T08:16:32;101470.83;;;0.19;100.00
44872;BME280;30602;51.060;17.226;2023-02-03T08:19:40;101462.59;;;0.19;100.00
44872;BME280;30602;51.060;17.226;2023-02-03T08:23:46;101448.21;;;0.14;100.00
44872;BME280;30602;51.060;17.226;2023-02-03T08:27:32;101438.25;;;0.16;100.00
44872;BME280;30602;51.060;17.226;2023-02-03T08:30:46;101428.45;;;0.21;100.00
44872;BME280;30602;51.060;17.226;2023-02-03T08:33:58;101418.30;;;0.19;100.00
44872;BME280;30602;51.060;17.226;2023-02-03T08:37:10;101422.41;;;0.23;100.00
44872;BME280;30602;51.060;17.226;2023-02-03T08:41:26;101405.09;;;0.19;100.00
44872;BME280;30602;51.060;17.226;2023-02-03T08:44:32;101389.25;;;0.22;100.00
44872;BME280;30602;51.060;17.226;2023-02-03T08:47:43;101384.63;;;0.24;100.00
44872;BME280;30602;51.060;17.226;2023-02-03T08:51:47;101382.98;;;0.26;100.00
44872;BME280;30602;51.060;17.226;2023-02-03T08:55:41;101391.05;;;0.31;100.00
44872;BME280;30602;51.060;17.226;2023-02-03T08:58:49;101389.39;;;0.46;100.00
44872;BME280;30602;51.060;17.226;2023-02-03T09:02:48;101388.27;;;0.49;100.00
44872;BME280;30602;51.060;17.226;2023-02-03T09:06:20;101364.57;;;0.48;100.00
44872;BME280;30602;51.060;17.226;2023-02-03T09:09:31;101350.55;;;0.51;100.00
44872;BME280;30602;51.060;17.226;2023-02-03T09:13:10;101344.66;;;0.46;100.00
44872;BME280;30602;51.060;17.226;2023-02-03T09:16:19;101343.80;;;0.46;100.00
44872;BME280;30602;51.060;17.226;2023-02-03T09:20:04;101336.16;;;0.50;100.00
44872;BME280;30602;51.060;17.226;2023-02-03T09:23:11;101321.52;;;0.56;100.00
44872;BME280;30602;51.060;17.226;2023-02-03T09:26:53;101286.87;;;0.48;100.00
44872;BME280;30602;51.060;17.226;2023-02-03T09:30:03;101296.05;;;0.70;100.00
44872;BME280;30602;51.060;17.226;2023-02-03T09:33:11;101290.78;;;0.71;100.00
44872;BME280;30602;51.060;17.226;2023-02-03T09:36:18;101285.48;;;0.69;100.00
44872;BME280;30602;51.060;17.226;2023-02-03T09:40:01;101276.59;;;0.69;100.00
44872;BME280;30602;51.060;17.226;2023-02-03T09:46:43;101262.58;;;0.68;100.00
44872;BME280;30602;51.060;17.226;2023-02-03T09:49:58;101251.41;;;0.71;100.00
44872;BME280;30602;51.060;17.226;2023-02-03T09:53:24;101240.92;;;0.72;100.00
44872;BME280;30602;51.060;17.226;2023-02-03T09:56:31;101219.99;;;0.73;100.00
44872;BME280;30602;51.060;17.226;2023-02-03T09:59:42;101209.59;;;0.77;100.00
44872;BME280;30602;51.060;17.226;2023-02-03T10:06:39;101208.09;;;0.87;100.00
44872;BME280;30602;51.060;17.226;2023-02-03T10:20:47;101145.66;;;1.06;100.00
44872;BME280;30602;51.060;17.226;2023-02-03T10:28:57;101114.69;;;1.21;100.00
44872;BME280;30602;51.060;17.226;2023-02-03T10:31:59;101101.35;;;1.25;100.00
44872;BME280;30602;51.060;17.226;2023-02-03T10:35:48;101095.23;;;1.28;100.00
44872;BME280;30602;51.060;17.226;2023-02-03T10:39:03;101082.40;;;1.30;100.00
44872;BME280;30602;51.060;17.226;2023-02-03T10:42:13;101071.87;;;1.29;100.00
44872;BME280;30602;51.060;17.226;2023-02-03T10:46:05;101059.07;;;1.31;100.00
44872;BME280;30602;51.060;17.226;2023-02-03T10:49:14;101038.64;;;1.34;100.00
44872;BME280;30602;51.060;17.226;2023-02-03T10:52:33;101015.41;;;1.29;100.00
44872;BME280;30602;51.060;17.226;2023-02-03T10:56:13;100998.82;;;1.29;100.00
44872;BME280;30602;51.060;17.226;2023-02-03T10:59:35;100984.15;;;1.31;100.00
44872;BME280;30602;51.060;17.226;2023-02-03T11:06:21;100968.36;;;1.32;100.00
44872;BME280;30602;51.060;17.226;2023-02-03T11:13:22;100951.45;;;1.51;100.00
44872;BME280;30602;51.060;17.226;2023-02-03T11:16:36;100926.48;;;1.42;100.00
44872;BME280;30602;51.060;17.226;2023-02-03T11:19:47;100933.97;;;1.53;100.00
44872;BME280;30602;51.060;17.226;2023-02-03T11:22:55;100926.91;;;1.52;100.00
44872;BME280;30602;51.060;17.226;2023-02-03T11:26:11;100914.23;;;1.56;100.00
44872;BME280;30602;51.060;17.226;2023-02-03T11:30:05;100895.76;;;1.61;100.00
44872;BME280;30602;51.060;17.226;2023-02-03T11:33:16;100885.16;;;1.69;100.00
44872;BME280;30602;51.060;17.226;2023-02-03T11:36:26;100873.27;;;1.73;100.00
44872;BME280;30602;51.060;17.226;2023-02-03T11:39:34;100868.70;;;1.78;100.00
44872;BME280;30602;51.060;17.226;2023-02-03T11:43:04;100860.32;;;1.82;100.00
44872;BME280;30602;51.060;17.226;2023-02-03T11:46:16;100841.54;;;1.90;100.00
44872;BME280;30602;51.060;17.226;2023-02-03T11:49:37;100840.48;;;1.91;100.00
44872;BME280;30602;51.060;17.226;2023-02-03T11:53:04;100828.76;;;1.93;100.00
44872;BME280;30602;51.060;17.226;2023-02-03T11:59:55;100815.15;;;2.03;100.00
44872;BME280;30602;51.060;17.226;2023-02-03T12:16:50;100777.73;;;2.15;100.00
44872;BME280;30602;51.060;17.226;2023-02-03T12:30:44;100746.95;;;2.30;100.00
44872;BME280;30602;51.060;17.226;2023-02-03T12:34:02;100730.79;;;2.44;100.00
44872;BME280;30602;51.060;17.226;2023-02-03T12:40:56;100713.02;;;2.56;100.00
44872;BME280;30602;51.060;17.226;2023-02-03T12:44:21;100697.57;;;2.62;100.00
44872;BME280;30602;51.060;17.226;2023-02-03T12:51:22;100690.48;;;2.87;100.00
44872;BME280;30602;51.060;17.226;2023-02-03T12:59:04;100669.86;;;3.28;100.00
44872;BME280;30602;51.060;17.226;2023-02-03T13:03:02;100663.41;;;3.38;100.00
44872;BME280;30602;51.060;17.226;2023-02-03T13:07:54;100652.12;;;3.45;100.00
44872;BME280;30602;51.060;17.226;2023-02-03T13:21:26;100642.88;;;3.86;100.00
44872;BME280;30602;51.060;17.226;2023-02-03T13:24:46;100642.26;;;3.96;100.00
44872;BME280;30602;51.060;17.226;2023-02-03T13:40:18;100632.22;;;4.26;100.00
44872;BME280;30602;51.060;17.226;2023-02-03T13:43:56;100639.80;;;4.36;100.00
44872;BME280;30602;51.060;17.226;2023-02-03T13:47:37;100654.75;;;4.47;100.00
44872;BME280;30602;51.060;17.226;2023-02-03T13:55:00;100655.01;;;4.64;100.00
44872;BME280;30602;51.060;17.226;2023-02-03T13:59:02;100641.52;;;4.80;100.00
44872;BME280;30602;51.060;17.226;2023-02-03T14:02:50;100634.74;;;4.89;100.00
44872;BME280;30602;51.060;17.226;2023-02-03T14:05:58;100640.36;;;4.88;100.00
44872;BME280;30602;51.060;17.226;2023-02-03T14:17:54;100666.36;;;4.96;100.00
44872;BME280;30602;51.060;17.226;2023-02-03T14:21:24;100669.50;;;4.98;100.00
44872;BME280;30602;51.060;17.226;2023-02-03T14:24:49;100665.59;;;4.97;100.00
44872;BME280;30602;51.060;17.226;2023-02-03T14:28:41;100666.09;;;4.97;100.00
44872;BME280;30602;51.060;17.226;2023-02-03T14:32:03;100667.48;;;4.99;100.00
44872;BME280;30602;51.060;17.226;2023-02-03T14:35:48;100666.30;;;4.92;100.00
44872;BME280;30602;51.060;17.226;2023-02-03T14:38:59;100681.98;;;5.08;100.00
44872;BME280;30602;51.060;17.226;2023-02-03T14:42:25;100677.80;;;5.04;100.00
44872;BME280;30602;51.060;17.226;2023-02-03T14:49:23;100678.40;;;4.85;100.00
44872;BME280;30602;51.060;17.226;2023-02-03T15:00:06;100708.46;;;4.87;100.00
44872;BME280;30602;51.060;17.226;2023-02-03T15:03:22;100716.73;;;4.82;100.00
44872;BME280;30602;51.060;17.226;2023-02-03T15:06:43;100726.74;;;4.79;100.00
44872;BME280;30602;51.060;17.226;2023-02-03T15:09:53;100714.10;;;4.70;100.00
44872;BME280;30602;51.060;17.226;2023-02-03T15:13:02;100727.32;;;4.71;100.00
44872;BME280;30602;51.060;17.226;2023-02-03T15:16:17;100729.98;;;4.74;100.00
44872;BME280;30602;51.060;17.226;2023-02-03T15:20:00;100746.37;;;4.72;100.00
44872;BME280;30602;51.060;17.226;2023-02-03T15:23:41;100752.01;;;4.81;100.00
44872;BME280;30602;51.060;17.226;2023-02-03T15:27:21;100747.16;;;4.82;99.85
44872;BME280;30602;51.060;17.226;2023-02-03T15:31:01;100742.76;;;4.81;99.49
44872;BME280;30602;51.060;17.226;2023-02-03T15:34:20;100749.18;;;4.80;98.77
44872;BME280;30602;51.060;17.226;2023-02-03T15:37:42;100750.54;;;4.76;98.90
44872;BME280;30602;51.060;17.226;2023-02-03T15:41:26;100743.33;;;4.72;98.99
44872;BME280;30602;51.060;17.226;2023-02-03T15:52:00;100752.59;;;4.70;99.27
44872;BME280;30602;51.060;17.226;2023-02-03T15:55:32;100766.09;;;4.68;99.03
44872;BME280;30602;51.060;17.226;2023-02-03T15:58:46;100769.64;;;4.73;98.39
44872;BME280;30602;51.060;17.226;2023-02-03T16:01:55;100772.70;;;4.77;97.81
44872;BME280;30602;51.060;17.226;2023-02-03T16:08:37;100777.91;;;4.87;97.59
44872;BME280;30602;51.060;17.226;2023-02-03T16:11:46;100773.68;;;4.86;97.35
44872;BME280;30602;51.060;17.226;2023-02-03T16:14:58;100768.61;;;4.78;97.22
44872;BME280;30602;51.060;17.226;2023-02-03T16:18:15;100776.03;;;4.72;97.45
44872;BME280;30602;51.060;17.226;2023-02-03T16:22:01;100783.25;;;4.72;97.58
44872;BME280;30602;51.060;17.226;2023-02-03T16:25:40;100780.45;;;4.73;97.61
44872;BME280;30602;51.060;17.226;2023-02-03T16:29:20;100786.21;;;4.73;97.07
44872;BME280;30602;51.060;17.226;2023-02-03T16:33:36;100801.46;;;4.72;96.32
44872;BME280;30602;51.060;17.226;2023-02-03T16:37:43;100804.48;;;4.72;96.06
44872;BME280;30602;51.060;17.226;2023-02-03T16:41:12;100807.23;;;4.71;95.36
44872;BME280;30602;51.060;17.226;2023-02-03T16:45:29;100822.19;;;4.75;94.04
44872;BME280;30602;51.060;17.226;2023-02-03T16:49:06;100829.58;;;4.73;93.46
44872;BME280;30602;51.060;17.226;2023-02-03T16:52:27;100844.22;;;4.72;93.19
44872;BME280;30602;51.060;17.226;2023-02-03T16:56:11;100850.84;;;4.71;93.13
44872;BME280;30602;51.060;17.226;2023-02-03T16:59:49;100857.67;;;4.62;92.87
44872;BME280;30602;51.060;17.226;2023-02-03T17:03:23;100872.00;;;4.60;92.85
44872;BME280;30602;51.060;17.226;2023-02-03T17:07:11;100880.91;;;4.61;92.60
44872;BME280;30602;51.060;17.226;2023-02-03T17:11:01;100880.93;;;4.58;93.39
44872;BME280;30602;51.060;17.226;2023-02-03T17:14:12;100872.84;;;4.48;94.25
44872;BME280;30602;51.060;17.226;2023-02-03T17:17:42;100875.83;;;4.36;94.69
44872;BME280;30602;51.060;17.226;2023-02-03T17:21:59;100875.94;;;4.29;94.90
44872;BME280;30602;51.060;17.226;2023-02-03T17:25:09;100880.23;;;4.26;94.19
44872;BME280;30602;51.060;17.226;2023-02-03T17:28:54;100883.20;;;4.24;93.83
44872;BME280;30602;51.060;17.226;2023-02-03T17:32:12;100894.91;;;4.30;92.25
44872;BME280;30602;51.060;17.226;2023-02-03T17:39:58;100894.72;;;4.43;91.31
44872;BME280;30602;51.060;17.226;2023-02-03T17:43:26;100898.72;;;4.45;91.00
44872;BME280;30602;51.060;17.226;2023-02-03T17:46:38;100899.67;;;4.49;90.94
44872;BME280;30602;51.060;17.226;2023-02-03T17:50:22;100894.85;;;4.39;91.72
44872;BME280;30602;51.060;17.226;2023-02-03T17:53:34;100904.87;;;4.31;91.48
44872;BME280;30602;51.060;17.226;2023-02-03T17:56:59;100907.88;;;4.36;91.78
44872;BME280;30602;51.060;17.226;2023-02-03T18:00:29;100912.39;;;4.35;91.50
44872;BME280;30602;51.060;17.226;2023-02-03T18:04:20;100908.85;;;4.38;92.29
44872;BME280;30602;51.060;17.226;2023-02-03T18:07:49;100910.23;;;4.29;93.17
44872;BME280;30602;51.060;17.226;2023-02-03T18:11:09;100911.98;;;4.22;93.30
44872;BME280;30602;51.060;17.226;2023-02-03T18:14:48;100911.47;;;4.25;93.60
44872;BME280;30602;51.060;17.226;2023-02-03T18:18:00;100913.80;;;4.15;94.18
44872;BME280;30602;51.060;17.226;2023-02-03T18:21:13;100907.55;;;4.16;95.21
44872;BME280;30602;51.060;17.226;2023-02-03T18:24:25;100915.95;;;4.08;96.07
44872;BME280;30602;51.060;17.226;2023-02-03T18:27:37;100913.77;;;4.03;96.64
44872;BME280;30602;51.060;17.226;2023-02-03T18:31:17;100910.47;;;4.04;96.70
44872;BME280;30602;51.060;17.226;2023-02-03T18:34:41;100905.28;;;4.06;96.47
44872;BME280;30602;51.060;17.226;2023-02-03T18:38:11;100910.34;;;4.08;96.18
44872;BME280;30602;51.060;17.226;2023-02-03T18:41:33;100911.46;;;4.05;96.04
44872;BME280;30602;51.060;17.226;2023-02-03T18:45:03;100910.91;;;4.12;95.68
44872;BME280;30602;51.060;17.226;2023-02-03T18:48:10;100912.38;;;4.13;95.70
44872;BME280;30602;51.060;17.226;2023-02-03T18:51:50;100923.12;;;4.16;95.53
44872;BME280;30602;51.060;17.226;2023-02-03T18:55:24;100931.56;;;4.15;95.35
44872;BME280;30602;51.060;17.226;2023-02-03T18:58:36;100935.80;;;4.17;95.28
44872;BME280;30602;51.060;17.226;2023-02-03T19:02:13;100941.57;;;4.18;95.54
44872;BME280;30602;51.060;17.226;2023-02-03T19:05:23;100937.62;;;4.19;95.66
44872;BME280;30602;51.060;17.226;2023-02-03T19:08:54;100938.38;;;4.17;95.68
44872;BME280;30602;51.060;17.226;2023-02-03T19:12:24;100938.60;;;4.22;95.56
44872;BME280;30602;51.060;17.226;2023-02-03T19:16:02;100927.92;;;4.29;95.06
44872;BME280;30602;51.060;17.226;2023-02-03T19:19:12;100933.37;;;4.38;94.16
44872;BME280;30602;51.060;17.226;2023-02-03T19:22:32;100929.53;;;4.37;94.45
44872;BME280;30602;51.060;17.226;2023-02-03T19:25:41;100935.30;;;4.40;94.19
44872;BME280;30602;51.060;17.226;2023-02-03T19:28:51;100925.82;;;4.37;94.54
44872;BME280;30602;51.060;17.226;2023-02-03T19:32:58;100929.51;;;4.40;95.28
44872;BME280;30602;51.060;17.226;2023-02-03T19:36:06;100934.72;;;4.37;96.16
44872;BME280;30602;51.060;17.226;2023-02-03T19:39:14;100927.36;;;4.29;96.99
44872;BME280;30602;51.060;17.226;2023-02-03T19:43:18;100924.45;;;4.27;97.84
44872;BME280;30602;51.060;17.226;2023-02-03T19:46:30;100923.81;;;4.23;97.75
44872;BME280;30602;51.060;17.226;2023-02-03T19:50:04;100921.12;;;4.23;97.80
44872;BME280;30602;51.060;17.226;2023-02-03T19:53:53;100923.88;;;4.25;97.50
44872;BME280;30602;51.060;17.226;2023-02-03T19:57:08;100919.17;;;4.29;97.18
44872;BME280;30602;51.060;17.226;2023-02-03T20:01:37;100936.43;;;4.33;97.02
44872;BME280;30602;51.060;17.226;2023-02-03T20:05:45;100929.06;;;4.49;95.39
44872;BME280;30602;51.060;17.226;2023-02-03T20:09:18;100934.20;;;4.52;95.47
44872;BME280;30602;51.060;17.226;2023-02-03T20:13:32;100932.19;;;4.52;96.00
44872;BME280;30602;51.060;17.226;2023-02-03T20:16:41;100933.74;;;4.45;96.62
44872;BME280;30602;51.060;17.226;2023-02-03T20:20:00;100940.24;;;4.41;97.16
44872;BME280;30602;51.060;17.226;2023-02-03T20:23:29;100935.25;;;4.38;97.54
44872;BME280;30602;51.060;17.226;2023-02-03T20:26:50;100925.35;;;4.33;97.55
44872;BME280;30602;51.060;17.226;2023-02-03T20:30:01;100923.89;;;4.38;96.97
44872;BME280;30602;51.060;17.226;2023-02-03T20:33:46;100926.91;;;4.40;96.90
44872;BME280;30602;51.060;17.226;2023-02-03T20:37:22;100932.92;;;4.40;96.75